createdAt,value
2023-03-24T00:00:48.323Z,6.13
2023-03-24T00:03:17.878Z,5.10
2023-03-24T00:05:45.449Z,5.67
2023-03-24T00:08:12.745Z,5.43
2023-03-24T00:10:40.412Z,5.50
2023-03-24T00:13:07.713Z,5.70
2023-03-24T00:15:36.392Z,5.50
2023-03-24T00:18:04.402Z,5.40
2023-03-24T00:20:32.917Z,6.03
2023-03-24T00:23:00.538Z,5.80
2023-03-24T00:25:36.531Z,5.50
2023-03-24T00:28:06.587Z,5.93
2023-03-24T00:30:35.078Z,5.47
2023-03-24T00:33:02.658Z,5.83
2023-03-24T00:35:30.490Z,5.13
2023-03-24T00:37:58.436Z,6.00
2023-03-24T00:40:27.635Z,4.90
2023-03-24T00:42:56.232Z,5.73
2023-03-24T00:45:23.894Z,5.70
2023-03-24T00:47:54.280Z,6.43
2023-03-24T00:50:27.183Z,5.20
2023-03-24T00:52:55.783Z,5.47
2023-03-24T00:55:23.533Z,5.50
2023-03-24T00:57:51.443Z,5.63
2023-03-24T01:00:21.169Z,5.53
2023-03-24T01:02:53.655Z,5.83
2023-03-24T01:05:29.578Z,5.30
2023-03-24T01:08:03.931Z,5.70
2023-03-24T01:10:34.689Z,5.13
2023-03-24T01:13:02.547Z,6.10
2023-03-24T01:15:33.486Z,5.20
2023-03-24T01:18:04.807Z,5.13
2023-03-24T01:20:36.539Z,5.80
2023-03-24T01:23:07.996Z,5.83
2023-03-24T01:25:37.161Z,4.83
2023-03-24T01:28:04.676Z,6.20
2023-03-24T01:30:32.242Z,5.53
2023-03-24T01:32:59.897Z,5.23
2023-03-24T01:35:29.338Z,5.23
2023-03-24T01:37:57.748Z,5.73
2023-03-24T01:40:29.710Z,5.10
2023-03-24T01:42:57.595Z,6.10
2023-03-24T01:45:40.509Z,6.17
2023-03-24T01:48:34.702Z,5.93
2023-03-24T01:51:02.539Z,5.20
2023-03-24T01:53:31.553Z,5.57
2023-03-24T01:56:00.009Z,6.00
2023-03-24T01:58:32.869Z,5.63
2023-03-24T02:01:11.098Z,5.53
2023-03-24T02:03:58.920Z,6.10
2023-03-24T02:06:27.744Z,6.07
2023-03-24T02:08:59.351Z,6.23
2023-03-24T02:11:29.916Z,6.10
2023-03-24T02:14:01.002Z,5.37
2023-03-24T02:16:43.858Z,6.00
2023-03-24T02:19:38.069Z,6.43
2023-03-24T02:22:26.467Z,5.40
2023-03-24T02:25:09.350Z,5.93
2023-03-24T02:27:46.137Z,5.50
2023-03-24T02:30:32.251Z,5.93
2023-03-24T02:33:18.548Z,5.97
2023-03-24T02:36:24.864Z,5.80
2023-03-24T02:39:06.692Z,5.87
2023-03-24T02:41:42.914Z,6.03
2023-03-24T02:44:16.832Z,5.10
2023-03-24T02:47:03.226Z,5.13
2023-03-24T02:49:36.905Z,5.10
2023-03-24T02:52:11.034Z,5.33
2023-03-24T02:54:52.309Z,5.07
2023-03-24T02:57:29.223Z,4.93
2023-03-24T03:00:22.802Z,5.40
2023-03-24T03:03:22.129Z,5.57
2023-03-24T03:06:01.768Z,5.57
2023-03-24T03:08:32.477Z,5.40
2023-03-24T03:11:01.827Z,5.30
2023-03-24T03:13:38.632Z,5.37
2023-03-24T03:16:38.296Z,5.60
2023-03-24T03:19:18.972Z,4.97
2023-03-24T03:21:48.712Z,5.43
2023-03-24T03:24:20.250Z,5.67
2023-03-24T03:26:49.130Z,5.57
2023-03-24T03:29:18.502Z,5.07
2023-03-24T03:31:50.979Z,6.20
2023-03-24T03:34:21.822Z,5.40
2023-03-24T03:36:52.950Z,5.93
2023-03-24T03:39:26.482Z,6.27
2023-03-24T03:41:54.888Z,5.50
2023-03-24T03:44:22.375Z,5.40
2023-03-24T03:46:50.200Z,6.57
2023-03-24T03:49:25.855Z,5.60
2023-03-24T03:51:55.741Z,6.37
2023-03-24T03:54:24.214Z,5.70
2023-03-24T03:56:52.246Z,5.67
2023-03-24T03:59:34.030Z,5.80
2023-03-24T04:02:28.250Z,5.57
2023-03-24T04:05:14.137Z,5.57
2023-03-24T04:08:06.989Z,5.93
2023-03-24T04:11:14.955Z,5.83
2023-03-24T04:14:11.051Z,5.87
2023-03-24T04:16:59.567Z,5.23
2023-03-24T04:19:39.547Z,5.40
2023-03-24T04:22:16.209Z,5.83
2023-03-24T04:25:07.941Z,6.10
2023-03-24T04:27:57.010Z,5.93
2023-03-24T04:30:27.649Z,5.80
2023-03-24T04:32:54.920Z,6.37
2023-03-24T04:35:31.898Z,6.10
2023-03-24T04:38:25.472Z,6.23
2023-03-24T04:41:06.471Z,6.80
2023-03-24T04:43:36.424Z,6.77
2023-03-24T04:46:08.407Z,5.97
2023-03-24T04:48:58.536Z,7.00
2023-03-24T04:51:34.690Z,7.40
2023-03-24T04:54:06.565Z,8.60
2023-03-24T04:56:41.722Z,7.37
2023-03-24T04:59:27.708Z,6.43
2023-03-24T05:01:55.840Z,7.10
2023-03-24T05:04:36.763Z,7.60
2023-03-24T05:07:18.743Z,7.03
2023-03-24T05:09:49.248Z,7.97
2023-03-24T05:12:17.740Z,7.40
2023-03-24T05:15:03.996Z,7.60
2023-03-24T05:17:32.303Z,7.80
2023-03-24T05:19:59.670Z,7.80
2023-03-24T05:22:27.325Z,8.17
2023-03-24T05:24:54.490Z,7.83
2023-03-24T05:27:21.770Z,8.10
2023-03-24T05:29:49.012Z,7.70
2023-03-24T05:32:22.038Z,7.80
2023-03-24T05:34:49.316Z,8.30
2023-03-24T05:37:19.206Z,8.03
2023-03-24T05:39:50.338Z,8.43
2023-03-24T05:42:36.337Z,8.70
2023-03-24T05:45:06.244Z,9.07
2023-03-24T05:47:34.624Z,8.07
2023-03-24T05:50:02.014Z,9.13
2023-03-24T05:52:31.555Z,8.30
2023-03-24T05:55:11.998Z,9.13
2023-03-24T05:57:41.029Z,8.80
2023-03-24T06:00:23.240Z,8.10
2023-03-24T06:03:06.447Z,9.33
2023-03-24T06:05:45.778Z,8.60
2023-03-24T06:08:13.399Z,10.13
2023-03-24T06:10:41.010Z,9.40
2023-03-24T06:13:11.296Z,8.63
2023-03-24T06:15:43.084Z,8.97
2023-03-24T06:18:31.972Z,7.70
2023-03-24T06:21:03.718Z,8.00
2023-03-24T06:23:33.854Z,7.80
2023-03-24T06:26:08.688Z,7.00
2023-03-24T06:28:39.538Z,7.10
2023-03-24T06:31:18.238Z,5.80
2023-03-24T06:33:45.701Z,5.80
2023-03-24T06:36:13.268Z,5.77
2023-03-24T06:38:43.030Z,6.07
2023-03-24T06:41:11.755Z,4.87
2023-03-24T06:43:39.034Z,5.50
2023-03-24T06:46:06.541Z,5.23
2023-03-24T06:48:35.704Z,5.13
2023-03-24T06:51:07.393Z,4.87
2023-03-24T06:53:37.660Z,4.80
2023-03-24T06:56:05.358Z,4.53
2023-03-24T06:58:39.338Z,5.30
2023-03-24T07:01:15.318Z,5.53
2023-03-24T07:03:57.418Z,4.83
2023-03-24T07:06:33.185Z,4.93
2023-03-24T07:09:12.019Z,5.67
2023-03-24T07:11:39.465Z,5.30
2023-03-24T07:14:07.226Z,4.93
2023-03-24T07:16:36.177Z,5.67
2023-03-24T07:19:29.600Z,5.50
2023-03-24T07:22:20.423Z,4.77
2023-03-24T07:25:10.317Z,5.80
2023-03-24T07:27:54.516Z,5.23
2023-03-24T07:30:27.327Z,6.40
2023-03-24T07:33:01.927Z,6.20
2023-03-24T07:35:29.599Z,5.97
2023-03-24T07:38:01.636Z,4.77
2023-03-24T07:40:30.269Z,5.10
2023-03-24T07:43:00.868Z,4.73
2023-03-24T07:46:03.469Z,5.00
2023-03-24T07:48:31.036Z,4.40
2023-03-24T07:50:58.306Z,5.40
2023-03-24T07:54:01.009Z,5.80
2023-03-24T07:56:42.771Z,5.37
2023-03-24T07:59:12.123Z,6.13
2023-03-24T08:02:02.281Z,6.27
2023-03-24T08:04:38.806Z,6.50
2023-03-24T08:07:14.887Z,5.97
2023-03-24T08:09:42.121Z,5.83
2023-03-24T08:12:20.139Z,6.70
2023-03-24T08:14:48.038Z,6.63
2023-03-24T08:17:17.542Z,6.27
2023-03-24T08:19:58.207Z,5.83
2023-03-24T08:22:27.180Z,5.80
2023-03-24T08:24:54.406Z,6.37
2023-03-24T08:27:21.733Z,6.80
2023-03-24T08:29:48.913Z,4.97
2023-03-24T08:32:16.078Z,4.30
2023-03-24T08:34:43.296Z,4.30
2023-03-24T08:37:11.874Z,3.90
2023-03-24T08:39:39.107Z,4.90
2023-03-24T08:42:06.597Z,5.77
2023-03-24T08:44:33.830Z,4.43
2023-03-24T08:47:01.571Z,4.90
2023-03-24T08:49:28.939Z,20.00
2023-03-24T08:51:56.632Z,4.90
2023-03-24T08:54:26.046Z,4.80
2023-03-24T08:56:53.347Z,5.50
2023-03-24T08:59:20.601Z,6.00
2023-03-24T09:01:48.232Z,5.13
2023-03-24T09:04:15.559Z,3.83
2023-03-24T09:06:43.982Z,3.53
2023-03-24T09:09:12.723Z,3.10
2023-03-24T09:11:39.945Z,2.50
2023-03-24T09:14:07.422Z,3.00
2023-03-24T09:16:34.751Z,2.67
2023-03-24T09:19:02.004Z,3.00
2023-03-24T09:21:29.305Z,2.63
2023-03-24T09:23:56.591Z,2.90
2023-03-24T09:26:24.799Z,3.07
2023-03-24T09:28:51.943Z,2.60
2023-03-24T09:31:19.281Z,2.23
2023-03-24T09:33:46.850Z,2.67
2023-03-24T09:36:14.045Z,2.63
2023-03-24T09:38:41.231Z,2.50
2023-03-24T09:41:15.970Z,2.50
2023-03-24T09:43:45.602Z,3.20
2023-03-24T09:46:16.293Z,2.40
2023-03-24T09:48:53.848Z,2.00
2023-03-24T09:51:25.289Z,2.20
2023-03-24T09:54:11.374Z,2.20
2023-03-24T09:56:39.556Z,2.33
2023-03-24T09:59:08.162Z,2.20
2023-03-24T10:01:36.336Z,2.40
2023-03-24T10:04:04.687Z,2.33
2023-03-24T10:06:39.920Z,2.30
2023-03-24T10:09:16.481Z,2.30
2023-03-24T10:11:56.218Z,2.67
2023-03-24T10:14:36.506Z,2.53
2023-03-24T10:17:07.075Z,2.10
2023-03-24T10:19:49.379Z,2.20
2023-03-24T10:22:22.487Z,2.60
2023-03-24T10:24:58.244Z,2.87
2023-03-24T10:27:29.579Z,3.43
2023-03-24T10:30:01.292Z,3.23
2023-03-24T10:32:30.756Z,3.60
2023-03-24T10:35:01.451Z,2.53
2023-03-24T10:37:31.330Z,2.80
2023-03-24T10:39:58.838Z,2.90
2023-03-24T10:42:28.111Z,3.23
2023-03-24T10:44:57.491Z,2.90
2023-03-24T10:47:27.155Z,3.23
2023-03-24T10:49:55.831Z,2.93
2023-03-24T10:52:24.849Z,2.53
2023-03-24T10:54:59.637Z,3.40
2023-03-24T10:57:27.960Z,2.93
2023-03-24T10:59:55.931Z,3.30
2023-03-24T11:02:27.561Z,2.63
2023-03-24T11:05:03.441Z,2.83
2023-03-24T11:07:35.937Z,2.43
2023-03-24T11:10:19.020Z,2.33
2023-03-24T11:13:13.531Z,2.20
2023-03-24T11:15:52.730Z,2.37
2023-03-24T11:18:20.358Z,2.70
2023-03-24T11:20:51.313Z,3.53
2023-03-24T11:23:25.988Z,2.33
2023-03-24T11:26:04.544Z,2.40
2023-03-24T11:28:38.449Z,2.60
2023-03-24T11:31:11.584Z,2.40
2023-03-24T11:33:43.831Z,2.60
2023-03-24T11:36:33.001Z,3.07
2023-03-24T11:39:01.113Z,2.90
2023-03-24T11:41:28.519Z,2.60
2023-03-24T11:44:20.505Z,3.10
2023-03-24T11:46:49.764Z,4.53
2023-03-24T11:49:21.285Z,2.70
2023-03-24T11:51:50.680Z,2.60
2023-03-24T11:54:19.374Z,2.63
2023-03-24T11:56:47.598Z,2.40
2023-03-24T11:59:33.825Z,3.20
2023-03-24T12:02:12.634Z,3.40
2023-03-24T12:04:58.503Z,2.50
2023-03-24T12:07:44.653Z,2.43
2023-03-24T12:10:23.997Z,2.40
2023-03-24T12:13:04.641Z,2.03
2023-03-24T12:15:34.290Z,1.97
2023-03-24T12:18:08.724Z,2.60
2023-03-24T12:20:49.806Z,2.20
2023-03-24T12:23:26.402Z,2.70
2023-03-24T12:26:10.320Z,3.30
2023-03-24T12:28:47.552Z,2.50
2023-03-24T12:31:17.071Z,1.80
2023-03-24T12:34:04.009Z,2.20
2023-03-24T12:36:46.383Z,2.37
2023-03-24T12:39:17.124Z,2.10
2023-03-24T12:42:02.576Z,2.43
2023-03-24T12:44:29.779Z,2.03
2023-03-24T12:47:09.232Z,2.30
2023-03-24T12:50:01.601Z,1.93
2023-03-24T12:53:06.669Z,2.20
2023-03-24T12:55:40.200Z,3.57
2023-03-24T12:58:14.678Z,2.20
2023-03-24T13:00:52.164Z,2.07
2023-03-24T13:03:22.821Z,2.40
2023-03-24T13:05:51.562Z,3.87
2023-03-24T13:08:32.221Z,2.13
2023-03-24T13:11:04.615Z,2.20
2023-03-24T13:13:33.775Z,2.03
2023-03-24T13:16:03.440Z,1.90
2023-03-24T13:18:37.739Z,2.20
2023-03-24T13:21:11.730Z,1.97
2023-03-24T13:23:57.617Z,2.40
2023-03-24T13:26:27.585Z,2.17
2023-03-24T13:28:54.759Z,1.70
2023-03-24T13:31:23.653Z,2.30
2023-03-24T13:33:52.798Z,2.50
2023-03-24T13:36:39.734Z,1.90
2023-03-24T13:39:10.280Z,2.20
2023-03-24T13:41:37.757Z,2.00
2023-03-24T13:44:17.144Z,2.20
2023-03-24T13:46:44.796Z,2.70
2023-03-24T13:49:13.199Z,2.23
2023-03-24T13:51:47.154Z,1.80
2023-03-24T13:54:19.470Z,2.10
2023-03-24T13:57:01.425Z,2.70
2023-03-24T13:59:32.366Z,2.40
2023-03-24T14:02:18.204Z,2.27
2023-03-24T14:05:04.047Z,2.07
2023-03-24T14:07:43.581Z,1.97
2023-03-24T14:10:17.352Z,1.90
2023-03-24T14:12:54.771Z,2.03
2023-03-24T14:15:41.106Z,2.10
2023-03-24T14:18:24.942Z,2.00
2023-03-24T14:20:58.751Z,2.00
2023-03-24T14:23:41.235Z,2.33
2023-03-24T14:26:34.008Z,1.90
2023-03-24T14:29:01.549Z,2.20
2023-03-24T14:31:33.526Z,2.03
2023-03-24T14:34:03.046Z,2.00
2023-03-24T14:36:32.669Z,2.63
2023-03-24T14:39:24.600Z,2.47
2023-03-24T14:41:52.591Z,2.70
2023-03-24T14:44:38.665Z,2.30
2023-03-24T14:47:06.150Z,2.20
2023-03-24T14:49:34.267Z,2.60
2023-03-24T14:52:04.152Z,2.03
2023-03-24T14:54:45.854Z,2.63
2023-03-24T14:57:33.036Z,2.40
2023-03-24T15:00:07.041Z,2.37
2023-03-24T15:02:42.016Z,2.53
2023-03-24T15:05:19.994Z,1.80
2023-03-24T15:08:04.140Z,2.13
2023-03-24T15:10:58.596Z,2.20
2023-03-24T15:13:25.841Z,2.60
2023-03-24T15:15:53.109Z,1.93
2023-03-24T15:18:22.383Z,3.10
2023-03-24T15:20:51.137Z,2.00
2023-03-24T15:23:24.137Z,2.70
2023-03-24T15:25:53.266Z,2.40
2023-03-24T15:28:21.994Z,2.50
2023-03-24T15:30:49.945Z,2.60
2023-03-24T15:33:18.063Z,2.60
2023-03-24T15:35:46.188Z,2.13
2023-03-24T15:38:21.668Z,2.40
2023-03-24T15:40:54.427Z,2.10
2023-03-24T15:43:22.217Z,2.30
2023-03-24T15:46:04.824Z,2.17
2023-03-24T15:48:37.740Z,2.03
2023-03-24T15:51:07.663Z,2.00
2023-03-24T15:53:44.169Z,2.03
2023-03-24T15:56:12.934Z,2.10
2023-03-24T15:58:46.512Z,2.33
2023-03-24T16:01:17.273Z,2.00
2023-03-24T16:03:48.545Z,3.20
2023-03-24T16:06:16.436Z,2.00
2023-03-24T16:08:45.728Z,2.17
2023-03-24T16:11:14.968Z,2.07
2023-03-24T16:13:44.660Z,2.20
2023-03-24T16:16:14.798Z,1.97
2023-03-24T16:18:43.518Z,4.10
2023-03-24T16:21:14.242Z,2.00
2023-03-24T16:23:44.734Z,2.50
2023-03-24T16:26:14.591Z,1.90
2023-03-24T16:28:41.996Z,2.20
2023-03-24T16:31:14.498Z,2.50
2023-03-24T16:33:41.919Z,2.27
2023-03-24T16:36:11.702Z,2.50
2023-03-24T16:38:41.862Z,2.30
2023-03-24T16:41:11.244Z,2.40
2023-03-24T16:43:38.495Z,2.23
2023-03-24T16:46:06.519Z,2.30
2023-03-24T16:48:34.018Z,2.27
2023-03-24T16:51:01.280Z,2.43
2023-03-24T16:53:28.831Z,1.77
2023-03-24T16:55:56.100Z,2.37
2023-03-24T16:58:23.374Z,2.37
2023-03-24T17:00:51.724Z,1.97
2023-03-24T17:03:19.106Z,2.07
2023-03-24T17:05:48.742Z,2.80
2023-03-24T17:08:16.617Z,2.83
2023-03-24T17:10:44.414Z,2.37
2023-03-24T17:13:26.587Z,2.73
2023-03-24T17:15:54.083Z,2.17
2023-03-24T17:18:21.995Z,2.37
2023-03-24T17:20:49.457Z,2.33
2023-03-24T17:23:18.814Z,2.30
2023-03-24T17:25:46.472Z,2.50
2023-03-24T17:28:18.029Z,2.63
2023-03-24T17:30:45.345Z,2.30
2023-03-24T17:33:15.694Z,2.23
2023-03-24T17:35:46.584Z,2.60
2023-03-24T17:38:14.631Z,1.90
2023-03-24T17:40:41.857Z,2.20
2023-03-24T17:43:09.088Z,2.27
2023-03-24T17:45:36.282Z,2.83
2023-03-24T17:48:03.895Z,2.13
2023-03-24T17:50:31.054Z,3.00
2023-03-24T17:53:00.603Z,2.00
2023-03-24T17:55:27.875Z,2.17
2023-03-24T17:57:55.542Z,2.40
2023-03-24T18:00:23.210Z,2.10
2023-03-24T18:02:51.001Z,2.60
2023-03-24T18:05:18.279Z,2.10
2023-03-24T18:07:46.773Z,2.40
2023-03-24T18:10:17.399Z,2.20
2023-03-24T18:12:45.235Z,2.27
2023-03-24T18:15:12.660Z,3.80
2023-03-24T18:17:40.592Z,2.40
2023-03-24T18:20:11.127Z,2.90
2023-03-24T18:22:41.263Z,2.40
2023-03-24T18:25:09.890Z,2.00
2023-03-24T18:27:37.692Z,2.50
2023-03-24T18:30:06.586Z,1.53
2023-03-24T18:32:35.785Z,2.30
2023-03-24T18:35:06.024Z,2.00
2023-03-24T18:37:33.230Z,1.97
2023-03-24T18:40:00.696Z,2.20
2023-03-24T18:42:28.394Z,2.80
2023-03-24T18:44:55.656Z,2.47
2023-03-24T18:47:24.486Z,2.80
2023-03-24T18:49:51.979Z,2.80
2023-03-24T18:52:20.350Z,2.57
2023-03-24T18:54:49.034Z,2.27
2023-03-24T18:57:16.434Z,2.83
2023-03-24T18:59:43.655Z,2.30
2023-03-24T19:02:15.559Z,2.70
2023-03-24T19:04:43.696Z,2.13
2023-03-24T19:07:14.494Z,2.60
2023-03-24T19:09:43.132Z,2.57
2023-03-24T19:12:12.670Z,2.40
2023-03-24T19:14:39.887Z,2.70
2023-03-24T19:17:07.423Z,4.60
2023-03-24T19:19:34.604Z,2.53
2023-03-24T19:22:01.867Z,2.40
2023-03-24T19:24:29.183Z,2.70
2023-03-24T19:26:56.954Z,2.67
2023-03-24T19:29:24.223Z,2.80
2023-03-24T19:31:52.749Z,3.70
2023-03-24T19:34:20.786Z,2.63
2023-03-24T19:36:49.603Z,2.90
2023-03-24T19:39:17.935Z,4.03
2023-03-24T19:41:45.584Z,3.97
2023-03-24T19:44:16.448Z,2.17
2023-03-24T19:46:44.338Z,2.63
2023-03-24T19:49:12.279Z,2.80
2023-03-24T19:51:39.444Z,5.00
2023-03-24T19:54:06.609Z,2.67
2023-03-24T19:56:34.909Z,2.20
2023-03-24T19:59:02.184Z,2.10
2023-03-24T20:01:35.845Z,3.07
2023-03-24T20:04:04.799Z,2.97
2023-03-24T20:06:32.303Z,3.37
2023-03-24T20:08:59.507Z,2.33
2023-03-24T20:11:27.214Z,2.60
2023-03-24T20:13:55.790Z,2.90
2023-03-24T20:16:23.091Z,2.60
2023-03-24T20:18:50.399Z,2.80
2023-03-24T20:21:21.565Z,2.70
2023-03-24T20:23:52.418Z,3.27
2023-03-24T20:26:20.134Z,2.50
2023-03-24T20:28:47.790Z,2.40
2023-03-24T20:31:16.494Z,2.30
2023-03-24T20:33:43.991Z,2.60
2023-03-24T20:36:12.399Z,1.97
2023-03-24T20:38:40.714Z,2.13
2023-03-24T20:41:09.356Z,2.20
2023-03-24T20:43:38.788Z,2.00
2023-03-24T20:46:07.033Z,1.60
2023-03-24T20:48:34.553Z,1.90
2023-03-24T20:51:03.236Z,1.93
2023-03-24T20:53:35.555Z,2.00
2023-03-24T20:56:06.641Z,1.67
2023-03-24T20:58:34.570Z,1.83
2023-03-24T21:01:06.044Z,1.70
2023-03-24T21:03:33.367Z,1.80
2023-03-24T21:06:00.885Z,1.90
2023-03-24T21:08:28.811Z,2.20
2023-03-24T21:10:56.994Z,2.20
2023-03-24T21:13:24.841Z,3.63
2023-03-24T21:15:52.158Z,1.90
2023-03-24T21:18:19.686Z,1.60
2023-03-24T21:20:54.868Z,1.80
2023-03-24T21:23:22.840Z,1.97
2023-03-24T21:25:50.782Z,2.13
2023-03-24T21:28:18.498Z,1.97
2023-03-24T21:30:46.515Z,1.60
2023-03-24T21:33:14.803Z,1.90
2023-03-24T21:35:42.402Z,1.67
2023-03-24T21:38:10.300Z,1.80
2023-03-24T21:40:37.641Z,1.90
2023-03-24T21:43:05.361Z,1.97
2023-03-24T21:45:35.811Z,1.80
2023-03-24T21:48:05.237Z,1.90
2023-03-24T21:50:38.588Z,1.70
2023-03-24T21:53:17.074Z,1.60
2023-03-24T21:55:55.423Z,2.50
2023-03-24T21:58:23.619Z,1.50
2023-03-24T22:00:50.922Z,1.90
2023-03-24T22:03:21.517Z,1.93
2023-03-24T22:05:49.102Z,1.90
2023-03-24T22:08:22.363Z,2.20
2023-03-24T22:10:50.030Z,1.70
2023-03-24T22:13:17.174Z,1.83
2023-03-24T22:15:44.378Z,1.73
2023-03-24T22:18:12.557Z,1.43
2023-03-24T22:20:40.595Z,1.40
2023-03-24T22:23:07.878Z,1.30
2023-03-24T22:25:35.123Z,1.30
2023-03-24T22:28:02.354Z,1.50
2023-03-24T22:30:29.513Z,1.43
2023-03-24T22:32:57.492Z,1.40
2023-03-24T22:35:24.731Z,1.27
2023-03-24T22:37:51.907Z,1.70
2023-03-24T22:40:19.128Z,1.90
2023-03-24T22:42:46.274Z,1.37
2023-03-24T22:45:13.492Z,1.20
2023-03-24T22:47:40.804Z,1.50
2023-03-24T22:50:09.455Z,1.33
2023-03-24T22:52:36.575Z,1.93
2023-03-24T22:55:03.908Z,1.80
2023-03-24T22:57:31.110Z,1.60
2023-03-24T23:00:01.808Z,1.40
2023-03-24T23:02:29.449Z,1.97
2023-03-24T23:04:57.073Z,1.57
2023-03-24T23:07:24.304Z,2.07
2023-03-24T23:09:53.233Z,1.50
2023-03-24T23:12:21.293Z,1.60
2023-03-24T23:14:48.785Z,1.63
2023-03-24T23:17:15.947Z,2.00
2023-03-24T23:19:43.488Z,1.50
2023-03-24T23:22:11.191Z,1.30
2023-03-24T23:24:39.410Z,1.30
2023-03-24T23:27:07.085Z,1.50
2023-03-24T23:29:34.307Z,1.60
2023-03-24T23:32:01.531Z,1.30
2023-03-24T23:34:28.764Z,1.30
2023-03-24T23:36:56.768Z,1.40
2023-03-24T23:39:23.996Z,1.30
2023-03-24T23:41:51.182Z,1.20
2023-03-24T23:44:19.787Z,1.40
2023-03-24T23:46:47.008Z,1.30
2023-03-24T23:49:14.283Z,1.40
2023-03-24T23:51:41.497Z,1.50
2023-03-24T23:54:09.019Z,1.50
2023-03-24T23:56:37.402Z,1.30
2023-03-24T23:59:05.667Z,1.70
